createdAt,value
2023-12-11T00:00:08.713Z,99492.13
2023-12-11T00:02:36.002Z,99505.22
2023-12-11T00:05:04.142Z,99508.75
2023-12-11T00:07:31.790Z,99507.84
2023-12-11T00:09:59.186Z,99508.75
2023-12-11T00:12:26.515Z,99503.50
2023-12-11T00:14:55.405Z,99507.00
2023-12-11T00:17:23.948Z,99498.28
2023-12-11T00:19:51.429Z,99506.19
2023-12-11T00:22:18.912Z,99505.28
2023-12-11T00:24:46.324Z,99501.84
2023-12-11T00:27:13.634Z,99504.50
2023-12-11T00:29:41.164Z,99494.00
2023-12-11T00:32:08.802Z,99495.81
2023-12-11T00:34:36.216Z,99495.81
2023-12-11T00:37:04.032Z,99498.44
2023-12-11T00:39:31.710Z,99495.00
2023-12-11T00:41:59.857Z,99499.41
2023-12-11T00:44:27.380Z,99498.53
2023-12-11T00:46:54.813Z,99498.53
2023-12-11T00:49:22.159Z,99496.81
2023-12-11T00:51:54.150Z,99499.44
2023-12-11T00:54:21.577Z,99510.81
2023-12-11T00:56:48.884Z,99513.44
2023-12-11T00:59:16.189Z,99516.06
2023-12-11T01:01:43.582Z,99513.44
2023-12-11T01:04:13.321Z,99515.22
2023-12-11T01:06:40.837Z,99508.25
2023-12-11T01:09:08.476Z,99517.88
2023-12-11T01:11:35.763Z,99526.59
2023-12-11T01:14:03.659Z,99518.72
2023-12-11T01:16:31.157Z,99528.34
2023-12-11T01:18:58.809Z,99520.50
2023-12-11T01:21:26.273Z,99519.59
2023-12-11T01:23:56.432Z,99519.59
2023-12-11T01:26:25.221Z,99516.09
2023-12-11T01:28:52.785Z,99516.09
2023-12-11T01:31:20.102Z,99509.97
2023-12-11T01:33:47.590Z,99514.34
2023-12-11T01:36:14.958Z,99514.34
2023-12-11T01:38:42.296Z,99514.31
2023-12-11T01:41:09.822Z,99513.44
2023-12-11T01:43:37.309Z,99509.97
2023-12-11T01:46:15.415Z,99509.06
2023-12-11T01:48:43.274Z,99503.84
2023-12-11T01:51:11.230Z,99512.56
2023-12-11T01:53:40.068Z,99509.06
2023-12-11T01:56:09.625Z,99506.44
2023-12-11T01:58:37.319Z,99505.53
2023-12-11T02:01:05.381Z,99504.66
2023-12-11T02:03:32.857Z,99508.16
2023-12-11T02:06:00.530Z,99501.16
2023-12-11T02:08:29.987Z,99505.56
2023-12-11T02:10:57.643Z,99501.22
2023-12-11T02:13:24.990Z,99499.50
2023-12-11T02:15:52.516Z,99492.50
2023-12-11T02:18:20.682Z,99490.72
2023-12-11T02:20:48.224Z,99488.09
2023-12-11T02:23:21.540Z,99491.59
2023-12-11T02:26:00.632Z,99491.59
2023-12-11T02:28:28.045Z,99488.09
2023-12-11T02:30:55.376Z,99489.81
2023-12-11T02:33:22.755Z,99491.53
2023-12-11T02:35:50.103Z,99488.06
2023-12-11T02:38:17.637Z,99489.78
2023-12-11T02:40:45.104Z,99475.75
2023-12-11T02:43:12.570Z,99471.41
2023-12-11T02:45:39.919Z,99469.66
2023-12-11T02:48:07.424Z,99454.78
2023-12-11T02:50:34.973Z,99456.53
2023-12-11T02:53:04.296Z,99441.69
2023-12-11T02:55:32.451Z,99439.06
2023-12-11T02:58:01.643Z,99436.44
2023-12-11T03:00:30.581Z,99422.47
2023-12-11T03:02:58.407Z,99422.47
2023-12-11T03:05:25.752Z,99424.19
2023-12-11T03:07:53.358Z,99421.56
2023-12-11T03:10:22.164Z,99425.94
2023-12-11T03:12:49.687Z,99418.06
2023-12-11T03:15:17.044Z,99414.56
2023-12-11T03:17:44.441Z,99413.69
2023-12-11T03:20:13.016Z,99417.16
2023-12-11T03:22:41.056Z,99401.44
2023-12-11T03:25:08.897Z,99406.69
2023-12-11T03:27:36.428Z,99408.44
2023-12-11T03:30:04.196Z,99395.31
2023-12-11T03:32:31.661Z,99398.81
2023-12-11T03:34:59.080Z,99400.56
2023-12-11T03:37:26.846Z,99399.69
2023-12-11T03:39:54.569Z,99397.06
2023-12-11T03:42:22.552Z,99390.97
2023-12-11T03:44:50.694Z,99385.72
2023-12-11T03:47:18.708Z,99383.09
2023-12-11T03:49:46.087Z,99384.81
2023-12-11T03:52:13.506Z,99380.44
2023-12-11T03:54:40.960Z,99377.81
2023-12-11T03:57:08.254Z,99376.94
2023-12-11T03:59:35.574Z,99369.97
2023-12-11T04:02:03.123Z,99376.06
2023-12-11T04:04:31.642Z,99367.34
2023-12-11T04:06:59.216Z,99367.34
2023-12-11T04:09:28.613Z,99366.44
2023-12-11T04:11:55.894Z,99359.44
2023-12-11T04:14:23.336Z,99368.19
2023-12-11T04:16:50.758Z,99362.06
2023-12-11T04:19:18.333Z,99364.69
2023-12-11T04:21:46.604Z,99348.94
2023-12-11T04:24:15.196Z,99354.19
2023-12-11T04:26:43.201Z,99345.44
2023-12-11T04:29:10.527Z,99345.44
2023-12-11T04:31:40.071Z,99348.06
2023-12-11T04:34:07.548Z,99341.06
2023-12-11T04:36:35.193Z,99341.94
2023-12-11T04:39:03.533Z,99348.06
2023-12-11T04:41:30.971Z,99351.56
2023-12-11T04:43:58.333Z,99339.31
2023-12-11T04:46:25.659Z,99341.03
2023-12-11T04:48:52.973Z,99329.66
2023-12-11T04:51:20.347Z,99331.41
2023-12-11T04:53:47.832Z,99332.25
2023-12-11T04:56:15.157Z,99328.72
2023-12-11T04:58:42.698Z,99340.13
2023-12-11T05:01:10.015Z,99330.50
2023-12-11T05:03:37.594Z,99334.88
2023-12-11T05:06:05.104Z,99337.53
2023-12-11T05:08:32.483Z,99343.66
2023-12-11T05:10:59.805Z,99334.06
2023-12-11T05:13:27.216Z,99339.31
2023-12-11T05:15:54.788Z,99336.69
2023-12-11T05:18:22.207Z,99330.56
2023-12-11T05:20:49.474Z,99331.44
2023-12-11T05:23:16.801Z,99328.81
2023-12-11T05:25:44.149Z,99328.81
2023-12-11T05:28:12.056Z,99328.81
2023-12-11T05:30:39.668Z,99323.56
2023-12-11T05:33:07.056Z,99323.56
2023-12-11T05:35:34.725Z,99309.59
2023-12-11T05:38:02.111Z,99321.78
2023-12-11T05:40:29.505Z,99320.06
2023-12-11T05:42:56.808Z,99325.31
2023-12-11T05:45:24.178Z,99323.56
2023-12-11T05:47:51.504Z,99320.94
2023-12-11T05:50:20.103Z,99319.22
2023-12-11T05:52:48.396Z,99313.06
2023-12-11T05:55:15.969Z,99316.59
2023-12-11T05:57:44.982Z,99315.69
2023-12-11T06:00:13.957Z,99307.84
2023-12-11T06:02:41.353Z,99316.59
2023-12-11T06:05:09.912Z,99312.22
2023-12-11T06:07:37.430Z,99314.84
2023-12-11T06:10:05.512Z,99307.84
2023-12-11T06:12:33.821Z,99306.09
2023-12-11T06:15:01.128Z,99313.06
2023-12-11T06:17:28.689Z,99302.59
2023-12-11T06:19:56.347Z,99305.22
2023-12-11T06:22:23.713Z,99306.97
2023-12-11T06:24:51.279Z,99306.06
2023-12-11T06:27:18.556Z,99307.81
2023-12-11T06:29:45.985Z,99310.44
2023-12-11T06:32:13.369Z,99306.97
2023-12-11T06:34:40.915Z,99306.97
2023-12-11T06:37:08.488Z,99306.97
2023-12-11T06:39:36.220Z,99305.22
2023-12-11T06:42:04.100Z,99304.34
2023-12-11T06:44:31.540Z,99301.72
2023-12-11T06:46:58.949Z,99307.84
2023-12-11T06:49:26.695Z,99303.50
2023-12-11T06:51:56.754Z,99307.88
2023-12-11T06:54:24.156Z,99307.00
2023-12-11T06:56:51.469Z,99306.13
2023-12-11T06:59:18.781Z,99304.41
2023-12-11T07:01:46.149Z,99306.16
2023-12-11T07:04:13.713Z,99313.16
2023-12-11T07:06:41.130Z,99307.03
2023-12-11T07:09:09.146Z,99307.06
2023-12-11T07:11:36.458Z,99313.16
2023-12-11T07:14:04.026Z,99314.91
2023-12-11T07:16:35.054Z,99301.81
2023-12-11T07:19:04.916Z,99307.91
2023-12-11T07:21:32.469Z,99312.28
2023-12-11T07:23:59.821Z,99310.50
2023-12-11T07:26:27.097Z,99307.91
2023-12-11T07:28:54.416Z,99320.16
2023-12-11T07:31:21.980Z,99313.13
2023-12-11T07:33:49.484Z,99313.13
2023-12-11T07:36:16.873Z,99313.13
2023-12-11T07:38:44.137Z,99305.28
2023-12-11T07:41:12.669Z,99314.00
2023-12-11T07:43:42.672Z,99311.38
2023-12-11T07:46:17.174Z,99307.00
2023-12-11T07:48:44.725Z,99307.00
2023-12-11T07:51:24.712Z,99304.41
2023-12-11T07:53:54.233Z,99308.75
2023-12-11T07:56:22.836Z,99295.66
2023-12-11T07:58:51.555Z,99302.66
2023-12-11T08:01:19.511Z,99299.16
2023-12-11T08:03:47.214Z,99307.91
2023-12-11T08:06:14.902Z,99301.81
2023-12-11T08:08:44.524Z,99305.28
2023-12-11T08:11:19.390Z,99307.03
2023-12-11T08:13:46.800Z,99296.56
2023-12-11T08:16:15.585Z,99303.53
2023-12-11T08:18:44.711Z,99305.28
2023-12-11T08:21:13.305Z,99310.53
2023-12-11T08:23:41.521Z,99311.38
2023-12-11T08:26:10.561Z,99306.16
2023-12-11T08:28:38.143Z,99307.00
2023-12-11T08:31:05.782Z,99311.38
2023-12-11T08:33:33.193Z,99306.13
2023-12-11T08:36:00.678Z,99302.66
2023-12-11T08:38:28.078Z,99308.75
2023-12-11T08:40:55.338Z,99313.13
2023-12-11T08:43:22.812Z,99309.63
2023-12-11T08:45:50.321Z,99314.84
2023-12-11T08:48:17.714Z,99310.50
2023-12-11T08:50:45.109Z,99317.47
2023-12-11T08:53:12.535Z,99326.25
2023-12-11T08:55:40.292Z,99328.81
2023-12-11T08:58:07.598Z,99323.56
2023-12-11T09:00:34.879Z,99333.19
2023-12-11T09:03:02.362Z,99341.03
2023-12-11T09:05:29.905Z,99347.16
2023-12-11T09:07:57.330Z,99343.63
2023-12-11T09:10:24.918Z,99341.84
2023-12-11T09:12:54.266Z,99355.81
2023-12-11T09:15:21.908Z,99357.56
2023-12-11T09:17:49.451Z,99365.38
2023-12-11T09:20:16.994Z,99358.34
2023-12-11T09:22:44.449Z,99364.44
2023-12-11T09:25:12.068Z,99375.78
2023-12-11T09:27:40.553Z,99367.06
2023-12-11T09:30:14.042Z,99379.31
2023-12-11T09:32:41.800Z,99387.16
2023-12-11T09:35:09.918Z,99394.13
2023-12-11T09:37:37.390Z,99380.16
2023-12-11T09:40:06.647Z,99393.28
2023-12-11T09:42:35.621Z,99402.00
2023-12-11T09:45:04.536Z,99407.25
2023-12-11T09:47:45.413Z,99412.50
2023-12-11T09:50:15.004Z,99415.09
2023-12-11T09:52:42.876Z,99418.59
2023-12-11T09:55:11.043Z,99419.44
2023-12-11T09:57:41.111Z,99429.00
2023-12-11T10:00:10.599Z,99440.38
2023-12-11T10:02:40.693Z,99429.00
2023-12-11T10:05:10.085Z,99450.84
2023-12-11T10:07:42.299Z,99450.00
2023-12-11T10:10:32.962Z,99462.25
2023-12-11T10:13:02.723Z,99460.50
2023-12-11T10:15:34.342Z,99467.50
2023-12-11T10:18:12.913Z,99472.69
2023-12-11T10:20:44.073Z,99469.22
2023-12-11T10:23:15.206Z,99489.34
2023-12-11T10:25:45.879Z,99490.19
2023-12-11T10:28:15.503Z,99491.06
2023-12-11T10:30:53.859Z,99493.69
2023-12-11T10:33:23.018Z,99503.28
2023-12-11T10:35:51.492Z,99505.88
2023-12-11T10:38:23.327Z,99509.41
2023-12-11T10:40:51.276Z,99518.13
2023-12-11T10:43:19.701Z,99518.09
2023-12-11T10:45:50.952Z,99526.81
2023-12-11T10:48:22.002Z,99544.25
2023-12-11T10:50:50.074Z,99541.63
2023-12-11T10:53:17.719Z,99546.88
2023-12-11T10:55:47.849Z,99554.75
2023-12-11T10:58:15.882Z,99553.84
2023-12-11T11:00:45.900Z,99556.47
2023-12-11T11:03:14.481Z,99559.06
2023-12-11T11:05:42.784Z,99562.56
2023-12-11T11:08:32.560Z,99575.66
2023-12-11T11:11:10.211Z,99575.63
2023-12-11T11:14:16.457Z,99585.22
2023-12-11T11:16:56.497Z,99590.47
2023-12-11T11:19:25.808Z,99603.59
2023-12-11T11:22:05.368Z,99600.97
2023-12-11T11:24:36.043Z,99597.50
2023-12-11T11:27:03.559Z,99604.50
2023-12-11T11:29:42.866Z,99611.47
2023-12-11T11:32:11.522Z,99618.50
2023-12-11T11:34:42.854Z,99629.00
2023-12-11T11:37:22.166Z,99623.75
2023-12-11T11:40:07.008Z,99635.16
2023-12-11T11:42:37.627Z,99650.91
2023-12-11T11:45:08.901Z,99647.44
2023-12-11T11:47:36.904Z,99654.47
2023-12-11T11:50:17.345Z,99652.69
2023-12-11T11:52:52.029Z,99659.72
2023-12-11T11:55:26.430Z,99668.47
2023-12-11T11:57:54.727Z,99668.44
2023-12-11T12:00:26.300Z,99671.06
2023-12-11T12:03:01.950Z,99675.47
2023-12-11T12:05:29.268Z,99685.97
2023-12-11T12:07:56.903Z,99679.84
2023-12-11T12:10:24.641Z,99682.47
2023-12-11T12:12:59.304Z,99702.59
2023-12-11T12:15:27.825Z,99696.44
2023-12-11T12:18:08.335Z,99701.69
2023-12-11T12:20:35.781Z,99716.59
2023-12-11T12:23:05.714Z,99714.00
2023-12-11T12:25:34.873Z,99726.28
2023-12-11T12:28:11.235Z,99730.66
2023-12-11T12:30:38.791Z,99730.69
2023-12-11T12:33:11.371Z,99740.34
2023-12-11T12:35:39.816Z,99740.34
2023-12-11T12:38:08.942Z,99769.19
2023-12-11T12:40:36.947Z,99764.84
2023-12-11T12:43:12.109Z,99769.25
2023-12-11T12:45:40.836Z,99779.72
2023-12-11T12:48:11.771Z,99789.38
2023-12-11T12:50:39.491Z,99788.47
2023-12-11T12:53:09.543Z,99795.47
2023-12-11T12:55:38.127Z,99805.09
2023-12-11T12:58:06.029Z,99804.25
2023-12-11T13:00:36.754Z,99807.72
2023-12-11T13:03:10.248Z,99802.47
2023-12-11T13:05:42.405Z,99822.59
2023-12-11T13:08:10.457Z,99819.97
2023-12-11T13:10:38.699Z,99820.88
2023-12-11T13:13:12.744Z,99825.22
2023-12-11T13:15:41.162Z,99840.97
2023-12-11T13:18:16.687Z,99836.63
2023-12-11T13:20:44.680Z,99843.59
2023-12-11T13:23:12.166Z,99845.34
2023-12-11T13:25:39.499Z,99860.22
2023-12-11T13:28:06.804Z,99862.84
2023-12-11T13:30:34.294Z,99867.25
2023-12-11T13:33:01.656Z,99882.97
2023-12-11T13:35:28.985Z,99893.47
2023-12-11T13:37:56.358Z,99896.97
2023-12-11T13:40:23.837Z,99896.09
2023-12-11T13:42:52.652Z,99900.47
2023-12-11T13:45:20.149Z,99905.69
2023-12-11T13:47:47.419Z,99919.72
2023-12-11T13:50:16.311Z,99918.81
2023-12-11T13:52:43.863Z,99922.31
2023-12-11T13:55:11.297Z,99937.19
2023-12-11T13:57:39.808Z,99941.53
2023-12-11T14:00:07.804Z,99940.66
2023-12-11T14:02:59.647Z,99952.91
2023-12-11T14:05:23.243Z,99955.50
2023-12-11T14:07:50.755Z,99956.41
2023-12-11T14:10:18.216Z,99966.00
2023-12-11T14:12:45.780Z,99979.13
2023-12-11T14:15:13.173Z,99983.47
2023-12-11T14:17:40.551Z,99981.72
2023-12-11T14:20:10.170Z,99991.34
2023-12-11T14:22:41.422Z,100007.06
2023-12-11T14:25:09.725Z,100008.81
2023-12-11T14:27:37.414Z,100012.28
2023-12-11T14:30:05.062Z,100015.75
2023-12-11T14:32:32.592Z,100025.38
2023-12-11T14:35:00.061Z,100023.63
2023-12-11T14:37:32.854Z,100031.44
2023-12-11T14:40:00.367Z,100035.81
2023-12-11T14:42:29.394Z,100040.19
2023-12-11T14:44:56.992Z,100050.66
2023-12-11T14:47:26.277Z,100054.16
2023-12-11T14:49:53.801Z,100057.63
2023-12-11T14:52:21.214Z,100066.41
2023-12-11T14:54:48.548Z,100069.88
2023-12-11T14:57:15.892Z,100064.63
2023-12-11T14:59:43.432Z,100068.13
2023-12-11T15:02:13.400Z,100082.06
2023-12-11T15:04:40.839Z,100082.97
2023-12-11T15:07:08.517Z,100097.78
2023-12-11T15:09:37.870Z,100091.69
2023-12-11T15:12:05.805Z,100094.28
2023-12-11T15:14:33.408Z,100097.78
2023-12-11T15:17:00.936Z,100108.25
2023-12-11T15:19:29.279Z,100106.50
2023-12-11T15:21:56.668Z,100106.50
2023-12-11T15:24:23.965Z,100107.34
2023-12-11T15:26:53.504Z,100114.31
2023-12-11T15:29:20.908Z,100109.91
2023-12-11T15:31:48.220Z,100119.50
2023-12-11T15:34:15.896Z,100126.47
2023-12-11T15:36:43.521Z,100128.19
2023-12-11T15:39:10.901Z,100124.69
2023-12-11T15:41:38.248Z,100128.13
2023-12-11T15:44:05.894Z,100139.44
2023-12-11T15:46:33.489Z,100135.94
2023-12-11T15:49:01.916Z,100144.59
2023-12-11T15:51:30.790Z,100146.31
2023-12-11T15:53:58.265Z,100156.78
2023-12-11T15:56:26.450Z,100166.34
2023-12-11T15:58:53.750Z,100171.56
2023-12-11T16:01:21.259Z,100170.69
2023-12-11T16:03:48.774Z,100183.81
2023-12-11T16:06:16.368Z,100177.69
2023-12-11T16:08:43.725Z,100191.66
2023-12-11T16:11:14.900Z,100196.00
2023-12-11T16:13:42.237Z,100185.56
2023-12-11T16:16:13.844Z,100191.69
2023-12-11T16:18:42.160Z,100196.94
2023-12-11T16:21:09.726Z,100190.81
2023-12-11T16:23:38.229Z,100210.06
2023-12-11T16:26:11.721Z,100204.81
2023-12-11T16:28:38.998Z,100210.97
2023-12-11T16:31:06.556Z,100221.44
2023-12-11T16:33:33.981Z,100222.31
2023-12-11T16:36:01.315Z,100224.94
2023-12-11T16:38:28.715Z,100231.06
2023-12-11T16:40:56.153Z,100238.03
2023-12-11T16:43:23.738Z,100238.03
2023-12-11T16:45:51.270Z,100231.06
2023-12-11T16:48:18.721Z,100244.16
2023-12-11T16:50:46.223Z,100245.06
2023-12-11T16:53:13.708Z,100238.94
2023-12-11T16:55:41.240Z,100248.53
2023-12-11T16:58:08.899Z,100253.75
2023-12-11T17:00:36.362Z,100254.66
2023-12-11T17:03:03.848Z,100256.38
2023-12-11T17:05:31.221Z,100255.47
2023-12-11T17:07:59.109Z,100267.72
2023-12-11T17:10:26.681Z,100265.09
2023-12-11T17:12:54.081Z,100265.97
2023-12-11T17:15:22.198Z,100279.03
2023-12-11T17:17:49.480Z,100287.81
2023-12-11T17:20:17.123Z,100284.28
2023-12-11T17:22:44.451Z,100293.88
2023-12-11T17:25:11.877Z,100289.50
2023-12-11T17:27:39.273Z,100293.00
2023-12-11T17:30:08.545Z,100302.59
2023-12-11T17:32:36.491Z,100304.34
2023-12-11T17:35:05.698Z,100306.09
2023-12-11T17:37:33.152Z,100312.19
2023-12-11T17:40:01.502Z,100313.91
2023-12-11T17:42:29.518Z,100311.28
2023-12-11T17:44:56.965Z,100319.13
2023-12-11T17:47:24.468Z,100319.13
2023-12-11T17:49:52.241Z,100321.75
2023-12-11T17:52:19.593Z,100325.22
2023-12-11T17:54:50.414Z,100325.22
2023-12-11T17:57:18.270Z,100333.91
2023-12-11T17:59:48.772Z,100334.78
2023-12-11T18:02:16.152Z,100338.25
2023-12-11T18:04:45.251Z,100340.00
2023-12-11T18:07:12.688Z,100342.63
2023-12-11T18:09:40.018Z,100349.59
2023-12-11T18:12:09.883Z,100346.13
2023-12-11T18:14:37.359Z,100352.19
2023-12-11T18:17:04.768Z,100364.44
2023-12-11T18:19:32.106Z,100357.44
2023-12-11T18:22:01.026Z,100368.78
2023-12-11T18:24:29.156Z,100373.09
2023-12-11T18:26:56.499Z,100376.59
2023-12-11T18:29:27.617Z,100373.09
2023-12-11T18:31:55.130Z,100373.09
2023-12-11T18:34:32.123Z,100365.25
2023-12-11T18:37:06.969Z,100370.41
2023-12-11T18:39:34.869Z,100377.34
2023-12-11T18:42:02.388Z,100364.22
2023-12-11T18:44:29.885Z,100372.88
2023-12-11T18:46:59.675Z,100388.53
2023-12-11T18:49:27.414Z,100390.22
2023-12-11T18:51:55.999Z,100388.47
2023-12-11T18:54:23.447Z,100398.06
2023-12-11T18:56:51.417Z,100401.47
2023-12-11T18:59:18.798Z,100404.91
2023-12-11T19:01:47.620Z,100407.50
2023-12-11T19:04:15.393Z,100416.19
2023-12-11T19:06:42.838Z,100415.28
2023-12-11T19:09:10.140Z,100417.00
2023-12-11T19:11:37.416Z,100418.75
2023-12-11T19:14:04.817Z,100418.72
2023-12-11T19:16:32.552Z,100421.31
2023-12-11T19:18:59.953Z,100420.41
2023-12-11T19:21:27.874Z,100426.47
2023-12-11T19:23:56.076Z,100423.75
2023-12-11T19:26:23.664Z,100428.06
2023-12-11T19:28:53.308Z,100434.13
2023-12-11T19:31:21.770Z,100435.75
2023-12-11T19:33:50.586Z,100440.03
2023-12-11T19:36:18.021Z,100439.94
2023-12-11T19:38:46.154Z,100442.47
2023-12-11T19:41:14.664Z,100447.63
2023-12-11T19:43:42.010Z,100461.56
2023-12-11T19:46:09.909Z,100463.31
2023-12-11T19:48:39.522Z,100457.25
2023-12-11T19:51:14.657Z,100462.50
2023-12-11T19:53:42.817Z,100470.34
2023-12-11T19:56:10.311Z,100480.81
2023-12-11T19:58:40.129Z,100473.84
2023-12-11T20:01:07.542Z,100479.94
2023-12-11T20:03:34.968Z,100486.91
2023-12-11T20:06:02.416Z,100485.13
2023-12-11T20:08:29.834Z,100490.34
2023-12-11T20:10:57.135Z,100493.84
2023-12-11T20:13:24.715Z,100494.66
2023-12-11T20:15:52.575Z,100496.38
2023-12-11T20:18:20.012Z,100503.34
2023-12-11T20:20:47.351Z,100494.66
2023-12-11T20:23:14.838Z,100502.50
2023-12-11T20:25:46.113Z,100502.53
2023-12-11T20:28:13.631Z,100502.56
2023-12-11T20:30:41.357Z,100500.00
2023-12-11T20:33:08.926Z,100505.22
2023-12-11T20:35:36.354Z,100514.00
2023-12-11T20:38:04.337Z,100506.16
2023-12-11T20:40:31.736Z,100511.44
2023-12-11T20:42:59.281Z,100519.31
2023-12-11T20:45:29.432Z,100519.34
2023-12-11T20:47:56.795Z,100522.88
2023-12-11T20:50:24.375Z,100517.63
2023-12-11T20:52:53.635Z,100508.91
2023-12-11T20:55:21.030Z,100518.56
2023-12-11T20:57:48.472Z,100524.66
2023-12-11T21:00:16.752Z,100521.22
2023-12-11T21:02:44.167Z,100525.56
2023-12-11T21:05:11.949Z,100522.09
2023-12-11T21:07:42.781Z,100532.47
2023-12-11T21:10:10.801Z,100535.06
2023-12-11T21:12:38.177Z,100532.41
2023-12-11T21:15:06.126Z,100534.16
2023-12-11T21:17:34.115Z,100547.22
2023-12-11T21:20:01.757Z,100547.22
2023-12-11T21:22:29.210Z,100549.88
2023-12-11T21:24:56.513Z,100549.88
2023-12-11T21:27:26.814Z,100550.78
2023-12-11T21:29:54.359Z,100543.84
2023-12-11T21:32:21.811Z,100548.19
2023-12-11T21:34:49.298Z,100558.66
2023-12-11T21:37:17.147Z,100549.94
2023-12-11T21:39:44.554Z,100557.78
2023-12-11T21:42:11.778Z,100557.69
2023-12-11T21:44:39.066Z,100559.41
2023-12-11T21:47:06.703Z,100553.22
2023-12-11T21:49:34.395Z,100555.81
2023-12-11T21:52:02.746Z,100558.34
2023-12-11T21:54:30.107Z,100556.56
2023-12-11T21:56:57.499Z,100567.88
2023-12-11T21:59:35.371Z,100560.00
2023-12-11T22:02:09.649Z,100565.22
2023-12-11T22:04:38.248Z,100562.53
2023-12-11T22:07:05.576Z,100576.44
2023-12-11T22:09:32.910Z,100569.47
2023-12-11T22:12:00.244Z,100573.78
2023-12-11T22:14:27.681Z,100590.34
2023-12-11T22:16:55.122Z,100592.09
2023-12-11T22:19:22.577Z,100594.69
2023-12-11T22:21:50.055Z,100603.41
2023-12-11T22:24:19.702Z,100603.44
2023-12-11T22:26:48.608Z,100612.22
2023-12-11T22:29:16.043Z,100606.16
2023-12-11T22:31:45.679Z,100607.16
2023-12-11T22:34:13.309Z,100620.25
2023-12-11T22:36:41.333Z,100625.59
2023-12-11T22:39:09.439Z,100610.81
2023-12-11T22:41:36.840Z,100612.59
2023-12-11T22:44:04.316Z,100610.88
2023-12-11T22:46:31.953Z,100619.69
2023-12-11T22:48:59.642Z,100612.75
2023-12-11T22:51:27.356Z,100619.72
2023-12-11T22:53:54.968Z,100618.00
2023-12-11T22:56:22.320Z,100623.19
2023-12-11T22:58:50.118Z,100631.03
2023-12-11T23:01:17.808Z,100639.72
2023-12-11T23:03:45.440Z,100637.94
2023-12-11T23:06:13.781Z,100644.00
2023-12-11T23:08:41.205Z,100643.13
2023-12-11T23:11:08.953Z,100645.78
2023-12-11T23:13:36.202Z,100647.53
2023-12-11T23:16:03.789Z,100640.59
2023-12-11T23:18:31.250Z,100632.78
2023-12-11T23:20:58.639Z,100645.94
2023-12-11T23:23:27.495Z,100642.44
2023-12-11T23:26:01.143Z,100643.31
2023-12-11T23:28:32.318Z,100647.69
2023-12-11T23:30:59.630Z,100652.91
2023-12-11T23:33:27.058Z,100657.31
2023-12-11T23:35:54.473Z,100647.72
2023-12-11T23:38:21.816Z,100649.47
2023-12-11T23:40:49.673Z,100651.19
2023-12-11T23:43:18.658Z,100652.94
2023-12-11T23:45:47.024Z,100659.91
2023-12-11T23:48:14.526Z,100658.19
2023-12-11T23:50:41.926Z,100658.13
2023-12-11T23:53:09.197Z,100666.91
2023-12-11T23:55:36.908Z,100665.97
2023-12-11T23:58:04.317Z,100673.00
